EST,Max TemperatureF,Mean TemperatureF,Min TemperatureF,Max Dew PointF,MeanDew PointF,Min DewpointF,Max Humidity, Mean Humidity, Min Humidity, Max Sea Level PressureIn, Mean Sea Level PressureIn, Min Sea Level PressureIn, Max VisibilityMiles, Mean VisibilityMiles, Min VisibilityMiles, Max Wind SpeedMPH, Mean Wind SpeedMPH, Max Gust SpeedMPH,PrecipitationIn, CloudCover, Events, WindDirDegrees
2012-11-1,50,42,35,37,30,21,100,65,34,29.93,29.87,29.83,10,10,10,15,5,,0.00,6,Rain,256
2012-11-2,57,45,33,36,28,21,87,51,35,30.03,29.92,29.89,10,10,10,18,5,,0.00,4,Rain,287
2012-11-3,59,42,26,39,29,23,100,64,27,30.15,30.07,29.99,10,10,10,8,1,,0.00,3,,355
2012-11-4,53,48,44,45,40,30,100,72,53,30.07,30.01,29.97,10,10,9,10,3,,0.00,7,,282
2012-11-5,51,40,28,34,30,27,100,75,38,30.12,30.06,30.01,10,10,10,8,3,,0.00,1,Rain,270
2012-11-6,42,38,33,36,32,28,93,74,57,30.05,29.99,29.92,10,10,10,10,4,,0.00,5,Rain,98
2012-11-7,44,40,37,39,37,36,93,88,76,30.04,29.92,29.87,10,9,4,7,1,,0.00,8,Rain,260
2012-11-8,51,40,30,37,34,28,100,82,47,30.21,30.15,30.05,10,9,5,10,4,,0.00,3,Rain,274
2012-11-9,60,43,26,36,29,27,100,71,27,30.31,30.25,30.21,10,9,5,7,1,,0.00,0,,276
2012-11-10,68,49,30,39,31,27,87,61,23,30.38,30.32,30.27,10,10,9,7,2,,0.00,0,,52
2012-11-11,71,52,32,46,37,30,93,62,22,30.41,30.34,30.30,10,10,10,12,1,,0.00,1,,129
2012-11-12,66,54,42,55,48,41,100,72,52,30.34,30.24,30.13,10,9,3,18,4,30,0.00,7,Rain,225
2012-11-13,46,36,26,36,28,23,100,74,43,30.43,30.39,30.34,10,10,9,10,3,,0.00,3,Rain,259
2012-11-14,53,37,21,36,27,21,100,72,38,30.41,30.35,30.28,10,10,7,8,1,,0.00,0,Rain,102
2012-11-15,53,42,30,34,30,27,93,71,41,30.32,30.27,30.22,10,10,10,10,3,,0.00,0,,353
2012-11-16,55,40,24,34,28,23,100,73,29,30.38,30.31,30.27,10,10,10,9,1,,0.00,0,Rain,209
2012-11-17,60,42,24,34,25,18,100,61,22,30.47,30.41,30.36,10,10,10,10,1,,0.00,0,Rain,49
2012-11-18,59,44,28,39,31,18,87,62,36,30.48,30.41,30.34,10,10,10,10,5,,0.00,0,,88
2012-11-19,60,44,28,43,37,28,100,79,48,30.36,30.28,30.20,10,10,10,9,2,,0.00,0,,266
2012-11-20,59,46,33,43,35,30,100,76,34,30.20,30.14,30.08,10,10,10,10,1,,0.00,0,,265
2012-11-21,60,45,30,37,33,28,100,72,31,30.22,30.17,30.12,10,10,7,10,1,,0.00,0,,229
2012-11-22,62,45,28,34,30,27,100,68,27,30.28,30.21,30.16,10,10,5,9,1,,0.00,0,,57
2012-11-23,60,45,30,43,35,27,100,75,45,30.18,30.08,29.98,10,10,10,15,3,23,0.00,2,,270
2012-11-24,39,30,21,28,20,16,86,60,44,30.14,30.09,30.04,10,10,10,13,7,,0.00,3,,277
2012-11-25,48,34,19,21,17,10,93,63,22,30.15,30.09,30.02,10,10,10,12,2,,0.00,0,,261
2012-11-26,59,40,21,36,24,18,86,58,25,30.23,30.15,30.10,10,10,10,8,1,,0.00,4,,260
2012-11-27,44,40,37,43,39,36,100,92,81,30.26,30.18,30.11,10,10,5,7,1,,0.00,8,Rain,251
2012-11-28,46,35,24,36,29,23,93,79,46,30.40,30.34,30.24,10,10,10,8,2,,0.00,3,Rain,265
2012-11-29,55,38,21,28,24,19,93,68,28,30.44,30.37,30.31,10,10,10,7,1,,0.00,0,,16
2012-11-30,55,40,26,34,30,25,100,74,41,30.38,30.32,30.26,10,10,7,14,2,,0.00,0,,310